createdAt,value
2018-04-06T00:00:11.169Z,2.60
2018-04-06T00:04:44.377Z,2.50
2018-04-06T00:09:17.545Z,2.50
2018-04-06T00:13:51.507Z,2.40
2018-04-06T00:18:24.700Z,2.30
2018-04-06T00:22:57.918Z,2.40
2018-04-06T00:27:31.082Z,2.30
2018-04-06T00:32:04.270Z,2.20
2018-04-06T00:36:37.464Z,2.30
2018-04-06T00:41:10.660Z,2.30
2018-04-06T00:45:43.880Z,2.10
2018-04-06T00:50:17.059Z,2.00
2018-04-06T00:54:50.249Z,2.00
2018-04-06T00:59:23.524Z,2.00
2018-04-06T01:03:57.480Z,1.80
2018-04-06T01:08:31.034Z,1.70
2018-04-06T01:13:04.301Z,1.80
2018-04-06T01:17:37.497Z,1.80
2018-04-06T01:22:11.620Z,1.70
2018-04-06T01:26:45.640Z,1.80
2018-04-06T01:31:18.861Z,1.70
2018-04-06T01:35:53.625Z,1.70
2018-04-06T01:40:26.820Z,1.60
2018-04-06T01:45:00.032Z,1.80
2018-04-06T01:49:33.797Z,1.70
2018-04-06T01:54:07.004Z,1.70
2018-04-06T01:58:40.200Z,1.60
2018-04-06T02:03:13.393Z,1.50
2018-04-06T02:07:46.961Z,1.60
2018-04-06T02:12:20.167Z,1.60
2018-04-06T02:16:54.127Z,1.40
2018-04-06T02:21:27.321Z,1.30
2018-04-06T02:26:00.511Z,1.20
2018-04-06T02:30:34.478Z,1.30
2018-04-06T02:35:07.707Z,1.20
2018-04-06T02:39:40.873Z,1.30
2018-04-06T02:44:14.077Z,1.30
2018-04-06T02:48:47.252Z,1.20
2018-04-06T02:53:21.239Z,1.10
2018-04-06T02:57:54.482Z,1.00
2018-04-06T03:02:27.671Z,0.90
2018-04-06T03:07:00.901Z,1.00
2018-04-06T03:11:34.843Z,1.30
2018-04-06T03:16:08.045Z,1.20
2018-04-06T03:20:41.999Z,1.20
2018-04-06T03:25:15.204Z,1.10
2018-04-06T03:29:48.380Z,1.30
2018-04-06T03:34:21.600Z,1.20
2018-04-06T03:38:54.804Z,1.10
2018-04-06T03:43:27.967Z,1.00
2018-04-06T03:48:01.208Z,1.10
2018-04-06T03:52:35.140Z,1.00
2018-04-06T03:57:08.328Z,1.00
2018-04-06T04:01:42.264Z,0.90
2018-04-06T04:06:16.221Z,0.80
2018-04-06T04:10:49.417Z,0.70
2018-04-06T04:15:22.620Z,0.80
2018-04-06T04:19:55.815Z,0.90
2018-04-06T04:24:29.007Z,1.00
2018-04-06T04:29:02.943Z,0.70
2018-04-06T04:33:36.167Z,0.60
2018-04-06T04:38:09.331Z,0.70
2018-04-06T04:42:42.569Z,0.60
2018-04-06T04:47:15.773Z,0.50
2018-04-06T04:51:49.003Z,0.50
2018-04-06T04:56:22.214Z,0.60
2018-04-06T05:00:56.621Z,0.60
2018-04-06T05:05:34.777Z,0.60
2018-04-06T05:10:08.369Z,0.60
2018-04-06T05:14:41.664Z,0.60
2018-04-06T05:19:14.872Z,0.70
2018-04-06T05:23:48.070Z,0.70
2018-04-06T05:28:21.284Z,0.70
2018-04-06T05:32:54.532Z,0.80
2018-04-06T05:37:27.856Z,0.90
2018-04-06T05:42:01.040Z,0.90
2018-04-06T05:46:34.519Z,1.00
2018-04-06T05:51:07.864Z,1.30
2018-04-06T05:55:41.142Z,1.80
2018-04-06T06:00:14.399Z,2.40
2018-04-06T06:04:47.635Z,2.60
2018-04-06T06:09:21.644Z,3.40
2018-04-06T06:13:54.888Z,3.40
2018-04-06T06:18:28.117Z,3.70
2018-04-06T06:23:01.368Z,4.00
2018-04-06T06:27:34.604Z,4.20
2018-04-06T06:32:08.565Z,4.70
2018-04-06T06:36:41.756Z,4.60
2018-04-06T06:41:15.023Z,4.80
2018-04-06T06:45:48.971Z,5.20
2018-04-06T06:50:22.921Z,5.40
2018-04-06T06:54:56.311Z,5.30
2018-04-06T06:59:29.713Z,5.70
2018-04-06T07:04:03.536Z,6.00
2018-04-06T07:08:36.827Z,6.30
2018-04-06T07:13:10.797Z,6.80
2018-04-06T07:17:44.036Z,6.70
2018-04-06T07:22:17.235Z,6.80
2018-04-06T07:26:50.936Z,6.90
2018-04-06T07:31:24.396Z,7.30
2018-04-06T07:35:57.708Z,8.00
2018-04-06T07:40:30.900Z,8.20
2018-04-06T07:45:04.228Z,8.30
2018-04-06T07:49:38.237Z,9.90
2018-04-06T07:54:11.437Z,9.80
2018-04-06T07:58:44.691Z,9.70
2018-04-06T08:03:17.979Z,10.40
2018-04-06T08:07:52.020Z,11.50
2018-04-06T08:12:25.279Z,11.40
2018-04-06T08:16:58.540Z,11.70
2018-04-06T08:21:31.769Z,12.00
2018-04-06T08:26:05.193Z,12.30
2018-04-06T08:30:38.446Z,11.70
2018-04-06T08:35:13.396Z,12.00
2018-04-06T08:39:47.387Z,12.70
2018-04-06T08:44:20.606Z,12.60
2018-04-06T08:48:53.934Z,13.30
2018-04-06T08:53:27.981Z,14.00
2018-04-06T08:58:01.197Z,13.90
2018-04-06T09:02:34.645Z,14.90
2018-04-06T09:07:07.881Z,15.10
2018-04-06T09:11:43.337Z,13.60
2018-04-06T09:16:16.667Z,13.60
2018-04-06T09:20:50.965Z,14.30
2018-04-06T09:25:24.960Z,14.30
2018-04-06T09:29:58.476Z,14.20
2018-04-06T09:34:31.716Z,14.60
2018-04-06T09:39:06.612Z,16.00
2018-04-06T09:43:39.833Z,15.90
2018-04-06T09:48:13.857Z,15.00
2018-04-06T09:52:47.117Z,14.50
2018-04-06T09:57:21.424Z,14.30
2018-04-06T10:01:55.771Z,15.60
2018-04-06T10:06:29.917Z,16.30
2018-04-06T10:11:03.871Z,15.40
2018-04-06T10:15:37.158Z,15.40
2018-04-06T10:20:10.398Z,15.10
2018-04-06T10:24:43.665Z,16.70
2018-04-06T10:29:17.657Z,16.60
2018-04-06T10:33:50.880Z,16.60
2018-04-06T10:38:24.114Z,16.50
2018-04-06T10:42:57.429Z,17.30
2018-04-06T10:47:30.681Z,18.10
2018-04-06T10:52:03.949Z,18.80
2018-04-06T10:56:38.623Z,18.30
2018-04-06T11:01:11.869Z,17.40
2018-04-06T11:05:45.889Z,17.60
2018-04-06T11:10:19.885Z,19.00
2018-04-06T11:14:53.164Z,18.90
2018-04-06T11:19:26.407Z,18.50
2018-04-06T11:23:59.599Z,18.60
2018-04-06T11:28:32.849Z,18.40
2018-04-06T11:33:06.837Z,18.40
2018-04-06T11:37:40.091Z,18.30
2018-04-06T11:42:14.170Z,19.80
2018-04-06T11:46:47.402Z,19.70
2018-04-06T11:51:20.770Z,19.60
2018-04-06T11:55:54.123Z,19.10
2018-04-06T12:00:27.798Z,19.40
2018-04-06T12:05:02.069Z,19.60
2018-04-06T12:09:36.036Z,19.30
2018-04-06T12:14:10.141Z,19.50
2018-04-06T12:18:44.078Z,19.60
2018-04-06T12:23:31.139Z,19.50
2018-04-06T12:28:06.981Z,20.10
2018-04-06T12:32:40.306Z,20.10
2018-04-06T12:37:13.714Z,20.40
2018-04-06T12:41:46.927Z,20.20
2018-04-06T12:46:26.337Z,19.90
2018-04-06T12:51:02.156Z,19.60
2018-04-06T12:55:35.466Z,19.90
2018-04-06T13:00:08.673Z,19.60
2018-04-06T13:04:41.895Z,19.00
2018-04-06T13:09:15.056Z,18.80
2018-04-06T13:13:49.041Z,19.40
2018-04-06T13:18:22.282Z,19.40
2018-04-06T13:22:56.258Z,19.70
2018-04-06T13:27:29.534Z,19.70
2018-04-06T13:32:02.755Z,19.70
2018-04-06T13:36:35.956Z,20.00
2018-04-06T13:41:09.231Z,19.00
2018-04-06T13:45:43.242Z,18.60
2018-04-06T13:50:17.232Z,18.90
2018-04-06T13:54:50.491Z,18.90
2018-04-06T13:59:24.573Z,19.50
2018-04-06T14:03:57.757Z,19.50
2018-04-06T14:08:30.977Z,19.40
2018-04-06T14:13:04.173Z,19.00
2018-04-06T14:17:37.355Z,18.60
2018-04-06T14:22:11.356Z,18.20
2018-04-06T14:26:44.921Z,18.10
2018-04-06T14:31:18.199Z,17.90
2018-04-06T14:35:52.284Z,17.90
2018-04-06T14:40:25.511Z,17.80
2018-04-06T14:44:59.524Z,17.80
2018-04-06T14:49:32.740Z,17.70
2018-04-06T14:54:06.025Z,17.30
2018-04-06T14:58:39.206Z,17.40
2018-04-06T15:03:12.452Z,17.30
2018-04-06T15:07:45.720Z,17.20
2018-04-06T15:12:18.921Z,17.30
2018-04-06T15:16:52.145Z,17.10
2018-04-06T15:21:25.369Z,17.30
2018-04-06T15:25:59.528Z,17.50
2018-04-06T15:30:32.702Z,17.30
2018-04-06T15:35:05.892Z,17.30
2018-04-06T15:39:39.103Z,16.90
2018-04-06T15:44:12.792Z,17.00
2018-04-06T15:48:46.004Z,17.10
2018-04-06T15:53:19.194Z,17.10
2018-04-06T15:57:53.315Z,16.90
2018-04-06T16:02:27.292Z,16.90
2018-04-06T16:07:00.728Z,16.80
2018-04-06T16:11:34.741Z,16.70
2018-04-06T16:16:08.295Z,16.60
2018-04-06T16:20:42.292Z,16.70
2018-04-06T16:25:15.524Z,16.60
2018-04-06T16:29:49.533Z,16.50
2018-04-06T16:34:22.741Z,16.40
2018-04-06T16:38:55.969Z,16.50
2018-04-06T16:43:29.935Z,16.30
2018-04-06T16:48:03.178Z,16.30
2018-04-06T16:52:36.428Z,16.30
2018-04-06T16:57:09.629Z,16.30
2018-04-06T17:01:42.800Z,16.30
2018-04-06T17:06:16.018Z,16.30
2018-04-06T17:10:50.052Z,16.10
2018-04-06T17:15:24.016Z,16.00
2018-04-06T17:19:57.294Z,16.00
2018-04-06T17:24:30.512Z,16.00
2018-04-06T17:29:03.700Z,15.90
2018-04-06T17:33:37.671Z,15.60
2018-04-06T17:38:10.904Z,15.50
2018-04-06T17:42:44.239Z,15.40
2018-04-06T17:47:18.257Z,15.10
2018-04-06T17:51:51.629Z,15.10
2018-04-06T17:56:24.832Z,15.00
2018-04-06T18:00:59.187Z,14.90
2018-04-06T18:05:32.427Z,14.80
2018-04-06T18:10:06.428Z,14.60
2018-04-06T18:14:39.604Z,14.50
2018-04-06T18:19:12.833Z,14.50
2018-04-06T18:23:46.028Z,14.40
2018-04-06T18:28:19.260Z,14.30
2018-04-06T18:32:53.251Z,14.10
2018-04-06T18:37:26.509Z,14.10
2018-04-06T18:42:00.592Z,13.90
2018-04-06T18:46:33.784Z,13.90
2018-04-06T18:51:07.013Z,13.80
2018-04-06T18:55:41.929Z,13.70
2018-04-06T19:00:15.133Z,13.70
2018-04-06T19:04:48.410Z,13.70
2018-04-06T19:09:22.395Z,13.40
2018-04-06T19:13:55.741Z,13.40
2018-04-06T19:18:29.702Z,13.20
2018-04-06T19:23:02.927Z,13.10
2018-04-06T19:27:36.151Z,13.20
2018-04-06T19:32:09.359Z,13.00
2018-04-06T19:36:42.583Z,12.70
2018-04-06T19:41:15.823Z,12.40
2018-04-06T19:45:49.338Z,12.30
2018-04-06T19:50:22.590Z,12.20
2018-04-06T19:54:55.796Z,12.10
2018-04-06T19:59:28.991Z,12.00
2018-04-06T20:04:02.228Z,12.10
2018-04-06T20:08:35.452Z,12.10
2018-04-06T20:13:09.439Z,12.00
2018-04-06T20:17:42.632Z,11.90
2018-04-06T20:22:16.639Z,11.80
2018-04-06T20:26:50.496Z,11.70
2018-04-06T20:31:23.761Z,11.50
2018-04-06T20:35:56.947Z,11.20
2018-04-06T20:40:30.920Z,10.70
2018-04-06T20:45:04.140Z,10.60
2018-04-06T20:49:38.105Z,10.50
2018-04-06T20:54:11.378Z,10.20
2018-04-06T20:58:44.548Z,10.20
2018-04-06T21:03:17.793Z,10.00
2018-04-06T21:07:51.016Z,10.10
2018-04-06T21:12:24.963Z,10.30
2018-04-06T21:16:58.925Z,10.30
2018-04-06T21:21:32.194Z,10.20
2018-04-06T21:26:06.160Z,10.10
2018-04-06T21:30:39.415Z,10.10
2018-04-06T21:35:13.396Z,9.90
2018-04-06T21:39:46.629Z,9.90
2018-04-06T21:44:20.609Z,9.80
2018-04-06T21:48:53.848Z,9.70
2018-04-06T21:53:27.195Z,9.90
2018-04-06T21:58:01.165Z,9.60
2018-04-06T22:02:34.397Z,9.50
2018-04-06T22:07:07.653Z,9.70
2018-04-06T22:11:40.880Z,9.70
2018-04-06T22:16:14.113Z,9.50
2018-04-06T22:20:47.312Z,9.30
2018-04-06T22:25:20.529Z,9.20
2018-04-06T22:29:53.752Z,9.20
2018-04-06T22:34:27.732Z,9.10
2018-04-06T22:39:00.985Z,9.10
2018-04-06T22:43:34.178Z,8.80
2018-04-06T22:48:07.429Z,8.50
2018-04-06T22:52:41.402Z,8.60
2018-04-06T22:57:14.613Z,8.60
2018-04-06T23:01:47.848Z,8.60
2018-04-06T23:06:21.852Z,8.20
2018-04-06T23:10:55.097Z,8.10
2018-04-06T23:15:29.085Z,7.60
2018-04-06T23:20:02.289Z,7.50
2018-04-06T23:24:35.529Z,7.30
2018-04-06T23:29:09.483Z,7.00
2018-04-06T23:33:42.729Z,6.90
2018-04-06T23:38:15.939Z,6.90
2018-04-06T23:42:49.131Z,6.70
2018-04-06T23:47:22.362Z,6.70
2018-04-06T23:51:55.580Z,6.60
2018-04-06T23:56:28.759Z,6.50
